createdAt,value
2022-11-05T00:00:41.264Z,98980.63
2022-11-05T00:03:29.019Z,98969.97
2022-11-05T00:06:20.263Z,98986.41
2022-11-05T00:09:08.263Z,98982.78
2022-11-05T00:11:52.289Z,98984.81
2022-11-05T00:14:40.270Z,98992.66
2022-11-05T00:17:09.345Z,99007.34
2022-11-05T00:19:37.795Z,99005.13
2022-11-05T00:22:28.628Z,99013.56
2022-11-05T00:25:16.910Z,99010.78
2022-11-05T00:27:48.945Z,99020.50
2022-11-05T00:30:20.358Z,99010.88
2022-11-05T00:32:49.531Z,99024.56
2022-11-05T00:35:18.991Z,99031.91
2022-11-05T00:37:50.247Z,99044.13
2022-11-05T00:40:19.061Z,99039.75
2022-11-05T00:43:04.939Z,99038.16
2022-11-05T00:45:33.275Z,99051.22
2022-11-05T00:48:19.608Z,99046.44
2022-11-05T00:50:47.743Z,99053.69
2022-11-05T00:53:18.845Z,99053.19
2022-11-05T00:55:47.728Z,99062.16
2022-11-05T00:58:19.808Z,99048.09
2022-11-05T01:00:50.858Z,99053.44
2022-11-05T01:03:23.641Z,99066.16
2022-11-05T01:05:59.563Z,99060.25
2022-11-05T01:08:29.641Z,99054.81
2022-11-05T01:10:59.505Z,99064.63
2022-11-05T01:13:33.176Z,99055.28
2022-11-05T01:16:07.775Z,99061.47
2022-11-05T01:18:38.405Z,99086.34
2022-11-05T01:21:16.652Z,99112.03
2022-11-05T01:23:52.575Z,99106.88
2022-11-05T01:26:22.020Z,99093.91
2022-11-05T01:29:01.003Z,99081.16
2022-11-05T01:31:42.928Z,99099.63
2022-11-05T01:34:11.120Z,99108.72
2022-11-05T01:36:42.689Z,99082.78
2022-11-05T01:39:13.840Z,99060.97
2022-11-05T01:41:42.156Z,99057.00
2022-11-05T01:44:47.057Z,99057.13
2022-11-05T01:47:25.340Z,99057.25
2022-11-05T01:49:55.947Z,99053.03
2022-11-05T01:52:25.192Z,99069.31
2022-11-05T01:55:00.237Z,99084.03
2022-11-05T01:57:30.142Z,99089.78
2022-11-05T02:00:01.085Z,99095.56
2022-11-05T02:02:29.691Z,99090.28
2022-11-05T02:05:01.075Z,99082.09
2022-11-05T02:07:30.086Z,99087.13
2022-11-05T02:10:05.380Z,99098.50
2022-11-05T02:12:35.188Z,99098.06
2022-11-05T02:15:03.323Z,99090.97
2022-11-05T02:17:41.625Z,99111.00
2022-11-05T02:20:25.059Z,99097.31
2022-11-05T02:23:41.511Z,99084.44
2022-11-05T02:26:49.438Z,99107.47
2022-11-05T02:29:58.183Z,99076.06
2022-11-05T02:32:46.554Z,99073.31
2022-11-05T02:35:26.439Z,99084.41
2022-11-05T02:38:02.464Z,99092.22
2022-11-05T02:40:37.741Z,99081.75
2022-11-05T02:43:18.460Z,99077.13
2022-11-05T02:45:54.560Z,99080.38
2022-11-05T02:48:30.034Z,99086.34
2022-11-05T02:51:04.172Z,99081.53
2022-11-05T02:53:37.975Z,99081.56
2022-11-05T02:56:10.290Z,99077.56
2022-11-05T02:58:38.684Z,99085.88
2022-11-05T03:01:07.177Z,99070.72
2022-11-05T03:03:42.720Z,99075.91
2022-11-05T03:06:28.838Z,99071.53
2022-11-05T03:09:21.487Z,99075.09
2022-11-05T03:12:04.559Z,99066.50
2022-11-05T03:14:40.819Z,99083.44
2022-11-05T03:17:14.837Z,99087.44
2022-11-05T03:19:50.340Z,99080.81
2022-11-05T03:22:23.364Z,99085.34
2022-11-05T03:24:55.936Z,99084.81
2022-11-05T03:27:27.600Z,99094.31
2022-11-05T03:30:03.589Z,99085.78
2022-11-05T03:32:35.212Z,99093.03
2022-11-05T03:35:09.974Z,99092.44
2022-11-05T03:37:41.422Z,99080.97
2022-11-05T03:40:12.077Z,99077.59
2022-11-05T03:42:46.874Z,99089.03
2022-11-05T03:45:18.390Z,99090.44
2022-11-05T03:47:49.097Z,99104.84
2022-11-05T03:50:22.655Z,99101.69
2022-11-05T03:52:59.188Z,99104.91
2022-11-05T03:55:31.879Z,99103.47
2022-11-05T03:58:00.481Z,99103.69
2022-11-05T04:00:28.785Z,99083.34
2022-11-05T04:02:57.465Z,99080.13
2022-11-05T04:05:29.733Z,99078.06
2022-11-05T04:08:15.176Z,99062.47
2022-11-05T04:11:01.389Z,99070.56
2022-11-05T04:13:30.918Z,99081.75
2022-11-05T04:16:18.576Z,99080.94
2022-11-05T04:18:48.961Z,99077.28
2022-11-05T04:21:35.567Z,99061.16
2022-11-05T04:24:10.557Z,99068.91
2022-11-05T04:26:40.952Z,99068.75
2022-11-05T04:29:28.588Z,99091.66
2022-11-05T04:31:59.933Z,99094.91
2022-11-05T04:34:29.109Z,99103.69
2022-11-05T04:36:58.903Z,99099.66
2022-11-05T04:39:28.300Z,99113.56
2022-11-05T04:42:00.090Z,99120.25
2022-11-05T04:44:28.180Z,99121.91
2022-11-05T04:46:56.774Z,99121.06
2022-11-05T04:49:24.840Z,99132.22
2022-11-05T04:52:00.103Z,99141.44
2022-11-05T04:54:34.257Z,99152.88
2022-11-05T04:57:02.514Z,99148.41
2022-11-05T04:59:31.224Z,99157.75
2022-11-05T05:01:59.844Z,99155.25
2022-11-05T05:04:28.457Z,99161.59
2022-11-05T05:06:59.910Z,99181.47
2022-11-05T05:09:29.355Z,99195.91
2022-11-05T05:11:58.992Z,99169.88
2022-11-05T05:14:27.253Z,99160.84
2022-11-05T05:16:56.722Z,99162.00
2022-11-05T05:19:25.495Z,99156.56
2022-11-05T05:21:56.429Z,99162.75
2022-11-05T05:24:25.453Z,99167.50
2022-11-05T05:26:57.526Z,99163.53
2022-11-05T05:29:26.627Z,99177.84
2022-11-05T05:31:57.193Z,99163.44
2022-11-05T05:34:27.348Z,99178.44
2022-11-05T05:36:56.763Z,99176.28
2022-11-05T05:39:24.834Z,99189.94
2022-11-05T05:42:00.151Z,99197.06
2022-11-05T05:44:28.295Z,99211.66
2022-11-05T05:46:57.604Z,99194.72
2022-11-05T05:49:25.611Z,99193.41
2022-11-05T05:51:59.142Z,99208.13
2022-11-05T05:54:33.368Z,99230.00
2022-11-05T05:57:09.440Z,99217.63
2022-11-05T05:59:38.719Z,99208.97
2022-11-05T06:02:07.285Z,99221.41
2022-11-05T06:04:36.492Z,99226.63
2022-11-05T06:07:05.337Z,99231.66
2022-11-05T06:09:33.372Z,99230.53
2022-11-05T06:12:02.550Z,99231.66
2022-11-05T06:14:33.202Z,99224.34
2022-11-05T06:17:03.602Z,99217.22
2022-11-05T06:19:32.691Z,99234.84
2022-11-05T06:22:03.849Z,99231.34
2022-11-05T06:24:34.264Z,99244.31
2022-11-05T06:27:02.319Z,99249.16
2022-11-05T06:29:33.918Z,99244.66
2022-11-05T06:32:03.307Z,99251.91
2022-11-05T06:34:33.169Z,99257.56
2022-11-05T06:37:03.897Z,99278.56
2022-11-05T06:39:34.586Z,99263.97
2022-11-05T06:42:19.344Z,99284.31
2022-11-05T06:44:48.191Z,99273.28
2022-11-05T06:47:17.720Z,99277.13
2022-11-05T06:49:47.808Z,99273.50
2022-11-05T06:52:16.928Z,99271.84
2022-11-05T06:54:46.211Z,99280.78
2022-11-05T06:57:15.708Z,99283.16
2022-11-05T06:59:44.449Z,99276.22
2022-11-05T07:02:14.297Z,99272.94
2022-11-05T07:04:43.770Z,99270.03
2022-11-05T07:07:13.381Z,99268.31
2022-11-05T07:09:43.262Z,99303.81
2022-11-05T07:12:12.646Z,99299.75
2022-11-05T07:14:41.385Z,99300.41
2022-11-05T07:17:10.469Z,99310.56
2022-11-05T07:19:39.708Z,99303.81
2022-11-05T07:22:11.925Z,99300.28
2022-11-05T07:24:40.396Z,99336.03
2022-11-05T07:27:09.563Z,99312.38
2022-11-05T07:29:38.416Z,99302.69
2022-11-05T07:32:08.054Z,99304.91
2022-11-05T07:34:38.809Z,99308.84
2022-11-05T07:37:06.809Z,99317.38
2022-11-05T07:39:36.799Z,99320.31
2022-11-05T07:42:06.134Z,99315.00
2022-11-05T07:44:35.461Z,99316.94
2022-11-05T07:47:03.511Z,99332.50
2022-11-05T07:49:32.428Z,99318.09
2022-11-05T07:52:03.776Z,99346.16
2022-11-05T07:54:31.824Z,99332.81
2022-11-05T07:57:04.828Z,99338.53
2022-11-05T07:59:33.207Z,99338.41
2022-11-05T08:02:03.839Z,99326.34
2022-11-05T08:04:32.034Z,99334.88
2022-11-05T08:07:00.495Z,99334.34
2022-11-05T08:09:28.911Z,99334.63
2022-11-05T08:12:02.634Z,99331.53
2022-11-05T08:14:37.854Z,99321.25
2022-11-05T08:17:06.484Z,99323.31
2022-11-05T08:19:35.975Z,99326.06
2022-11-05T08:22:04.560Z,99305.41
2022-11-05T08:24:32.918Z,99322.06
2022-11-05T08:27:04.045Z,99324.94
2022-11-05T08:29:34.995Z,99325.84
2022-11-05T08:32:04.474Z,99323.75
2022-11-05T08:34:34.806Z,99337.50
2022-11-05T08:37:03.709Z,99333.50
2022-11-05T08:39:31.803Z,99346.44
2022-11-05T08:42:00.554Z,99340.72
2022-11-05T08:44:30.306Z,99367.25
2022-11-05T08:47:00.091Z,99382.38
2022-11-05T08:49:29.441Z,99373.88
2022-11-05T08:52:00.917Z,99377.31
2022-11-05T08:54:32.931Z,99383.19
2022-11-05T08:57:03.811Z,99386.59
2022-11-05T08:59:31.832Z,99392.03
2022-11-05T09:02:04.922Z,99376.44
2022-11-05T09:04:33.309Z,99389.19
2022-11-05T09:07:03.889Z,99390.59
2022-11-05T09:09:33.212Z,99394.09
2022-11-05T09:12:17.686Z,99399.91
2022-11-05T09:14:48.972Z,99401.72
2022-11-05T09:17:20.000Z,99412.31
2022-11-05T09:19:49.838Z,99391.16
2022-11-05T09:22:17.900Z,99409.72
2022-11-05T09:24:46.760Z,99408.09
2022-11-05T09:27:15.901Z,99410.25
2022-11-05T09:29:44.576Z,99395.81
2022-11-05T09:32:19.049Z,99413.63
2022-11-05T09:34:49.080Z,99420.38
2022-11-05T09:37:21.790Z,99411.91
2022-11-05T09:39:50.925Z,99390.09
2022-11-05T09:42:42.303Z,99388.38
2022-11-05T09:45:18.935Z,99388.06
2022-11-05T09:47:49.408Z,99398.03
2022-11-05T09:50:26.389Z,99402.91
2022-11-05T09:52:56.993Z,99389.13
2022-11-05T09:55:29.282Z,99389.53
2022-11-05T09:58:01.933Z,99380.16
2022-11-05T10:00:33.520Z,99389.59
2022-11-05T10:03:05.486Z,99391.28
2022-11-05T10:05:38.518Z,99400.09
2022-11-05T10:08:12.404Z,99394.50
2022-11-05T10:10:44.809Z,99408.78
2022-11-05T10:13:23.036Z,99400.75
2022-11-05T10:15:59.614Z,99412.59
2022-11-05T10:18:32.332Z,99400.00
2022-11-05T10:21:03.760Z,99393.88
2022-11-05T10:23:34.586Z,99386.00
2022-11-05T10:26:04.476Z,99398.63
2022-11-05T10:28:35.053Z,99406.72
2022-11-05T10:31:09.323Z,99402.75
2022-11-05T10:33:42.805Z,99410.50
2022-11-05T10:36:18.265Z,99393.09
2022-11-05T10:38:49.050Z,99411.03
2022-11-05T10:41:39.056Z,99431.47
2022-11-05T10:44:18.937Z,99413.25
2022-11-05T10:46:53.713Z,99419.06
2022-11-05T10:49:35.062Z,99418.84
2022-11-05T10:52:23.301Z,99426.81
2022-11-05T10:55:02.571Z,99428.91
2022-11-05T10:57:34.298Z,99434.25
2022-11-05T11:00:22.673Z,99422.44
2022-11-05T11:02:53.269Z,99420.44
2022-11-05T11:05:31.309Z,99416.91
2022-11-05T11:08:07.905Z,99424.69
2022-11-05T11:10:41.984Z,99421.94
2022-11-05T11:13:20.613Z,99417.81
2022-11-05T11:15:50.982Z,99408.88
2022-11-05T11:18:27.930Z,99410.69
2022-11-05T11:21:09.406Z,99409.63
2022-11-05T11:23:40.427Z,99399.84
2022-11-05T11:26:09.174Z,99399.78
2022-11-05T11:28:39.800Z,99409.22
2022-11-05T11:31:12.931Z,99417.22
2022-11-05T11:33:43.937Z,99418.19
2022-11-05T11:36:13.398Z,99411.94
2022-11-05T11:38:45.499Z,99418.63
2022-11-05T11:41:28.052Z,99404.66
2022-11-05T11:44:01.372Z,99419.38
2022-11-05T11:46:33.696Z,99426.41
2022-11-05T11:49:02.088Z,99447.50
2022-11-05T11:51:35.954Z,99435.03
2022-11-05T11:54:06.708Z,99414.81
2022-11-05T11:56:44.636Z,99426.88
2022-11-05T11:59:30.804Z,99433.38
2022-11-05T12:02:40.791Z,99428.28
2022-11-05T12:05:18.534Z,99430.16
2022-11-05T12:07:57.197Z,99428.09
2022-11-05T12:10:57.217Z,99426.88
2022-11-05T12:14:04.459Z,99429.69
2022-11-05T12:16:56.700Z,99436.03
2022-11-05T12:19:34.327Z,99458.31
2022-11-05T12:22:08.348Z,99429.09
2022-11-05T12:24:56.349Z,99437.78
2022-11-05T12:27:40.799Z,99449.25
2022-11-05T12:30:13.903Z,99456.50
2022-11-05T12:33:12.755Z,99458.09
2022-11-05T12:35:53.428Z,99466.72
2022-11-05T12:38:34.820Z,99459.38
2022-11-05T12:41:13.784Z,99464.97
2022-11-05T12:44:00.771Z,99464.25
2022-11-05T12:46:35.793Z,99458.72
2022-11-05T12:49:24.027Z,99470.47
2022-11-05T12:52:08.065Z,99454.34
2022-11-05T12:54:49.781Z,99456.78
2022-11-05T12:57:19.091Z,99457.28
2022-11-05T12:59:57.154Z,99456.44
2022-11-05T13:02:30.950Z,99457.78
2022-11-05T13:05:08.138Z,99454.75
2022-11-05T13:07:40.484Z,99465.88
2022-11-05T13:10:16.842Z,99447.72
2022-11-05T13:13:00.551Z,99461.03
2022-11-05T13:15:37.594Z,99470.59
2022-11-05T13:18:12.008Z,99476.88
2022-11-05T13:20:44.805Z,99480.16
2022-11-05T13:23:19.549Z,99472.81
2022-11-05T13:25:54.189Z,99489.88
2022-11-05T13:28:33.959Z,99479.63
2022-11-05T13:31:06.328Z,99482.53
2022-11-05T13:33:38.447Z,99487.88
2022-11-05T13:36:28.549Z,99487.09
2022-11-05T13:39:03.681Z,99506.13
2022-11-05T13:41:49.984Z,99490.53
2022-11-05T13:44:43.169Z,99486.34
2022-11-05T13:47:39.850Z,99515.47
2022-11-05T13:50:59.798Z,99510.59
2022-11-05T13:53:43.241Z,99525.72
2022-11-05T13:56:24.803Z,99521.38
2022-11-05T13:59:10.407Z,99524.03
2022-11-05T14:01:50.312Z,99534.66
2022-11-05T14:04:29.558Z,99526.00
2022-11-05T14:07:08.469Z,99525.16
2022-11-05T14:09:39.493Z,99532.66
2022-11-05T14:12:15.455Z,99531.88
2022-11-05T14:14:47.634Z,99543.22
2022-11-05T14:17:28.495Z,99531.56
2022-11-05T14:20:36.913Z,99554.13
2022-11-05T14:23:37.758Z,99559.25
2022-11-05T14:26:30.538Z,99562.91
2022-11-05T14:29:27.963Z,99563.38
2022-11-05T14:32:08.925Z,99566.03
2022-11-05T14:34:48.449Z,99571.03
2022-11-05T14:37:39.060Z,99572.31
2022-11-05T14:40:38.416Z,99566.13
2022-11-05T14:43:09.704Z,99573.09
2022-11-05T14:45:41.847Z,99560.22
2022-11-05T14:48:29.303Z,99567.19
2022-11-05T14:50:59.669Z,99571.03
2022-11-05T14:53:33.451Z,99574.38
2022-11-05T14:56:05.909Z,99571.22
2022-11-05T14:58:40.426Z,99575.16
2022-11-05T15:01:11.176Z,99569.66
2022-11-05T15:04:17.702Z,99577.03
2022-11-05T15:07:19.615Z,99576.88
2022-11-05T15:09:57.402Z,99583.25
2022-11-05T15:12:33.266Z,99584.00
2022-11-05T15:15:05.059Z,99579.25
2022-11-05T15:17:40.229Z,99599.38
2022-11-05T15:20:14.350Z,99594.09
2022-11-05T15:22:59.950Z,99600.75
2022-11-05T15:25:35.595Z,99596.47
2022-11-05T15:28:09.558Z,99601.66
2022-11-05T15:30:40.291Z,99618.75
2022-11-05T15:33:22.210Z,99613.34
2022-11-05T15:35:50.336Z,99626.56
2022-11-05T15:38:35.010Z,99623.78
2022-11-05T15:41:15.895Z,99622.88
2022-11-05T15:43:48.188Z,99619.50
2022-11-05T15:46:22.445Z,99619.56
2022-11-05T15:48:56.692Z,99616.75
2022-11-05T15:51:29.612Z,99616.16
2022-11-05T15:54:24.400Z,99621.66
2022-11-05T15:56:57.273Z,99615.41
2022-11-05T15:59:28.941Z,99625.28
2022-11-05T16:02:03.511Z,99629.38
2022-11-05T16:04:35.333Z,99633.69
2022-11-05T16:07:10.259Z,99633.94
2022-11-05T16:09:40.257Z,99635.75
2022-11-05T16:12:29.148Z,99633.81
2022-11-05T16:15:00.989Z,99634.25
2022-11-05T16:17:36.700Z,99648.38
2022-11-05T16:20:20.049Z,99645.69
2022-11-05T16:22:50.134Z,99652.75
2022-11-05T16:25:29.763Z,99651.19
2022-11-05T16:28:04.624Z,99655.25
2022-11-05T16:30:36.519Z,99648.06
2022-11-05T16:33:07.642Z,99676.88
2022-11-05T16:35:50.965Z,99650.66
2022-11-05T16:38:22.214Z,99652.81
2022-11-05T16:41:01.114Z,99654.88
2022-11-05T16:43:38.209Z,99664.97
2022-11-05T16:46:08.222Z,99670.00
2022-11-05T16:48:38.004Z,99669.75
2022-11-05T16:51:06.623Z,99675.88
2022-11-05T16:53:38.838Z,99669.59
2022-11-05T16:56:11.130Z,99677.91
2022-11-05T16:59:00.081Z,99678.91
2022-11-05T17:01:30.609Z,99676.69
2022-11-05T17:03:59.548Z,99690.38
2022-11-05T17:06:31.235Z,99695.66
2022-11-05T17:09:01.838Z,99696.81
2022-11-05T17:11:33.985Z,99696.66
2022-11-05T17:14:11.795Z,99700.72
2022-11-05T17:16:44.495Z,99700.44
2022-11-05T17:19:19.168Z,99707.44
2022-11-05T17:21:50.507Z,99702.25
2022-11-05T17:24:20.027Z,99707.75
2022-11-05T17:26:50.288Z,99710.13
2022-11-05T17:29:23.303Z,99715.44
2022-11-05T17:31:56.417Z,99733.34
2022-11-05T17:34:26.688Z,99734.41
2022-11-05T17:36:59.464Z,99740.38
2022-11-05T17:39:31.992Z,99736.53
2022-11-05T17:42:02.607Z,99735.81
2022-11-05T17:44:33.601Z,99748.09
2022-11-05T17:47:03.405Z,99770.56
2022-11-05T17:49:33.225Z,99759.75
2022-11-05T17:52:05.538Z,99762.69
2022-11-05T17:54:36.113Z,99762.47
2022-11-05T17:57:07.248Z,99758.66
2022-11-05T17:59:39.130Z,99764.44
2022-11-05T18:02:11.948Z,99766.94
2022-11-05T18:04:44.842Z,99762.41
2022-11-05T18:07:20.240Z,99764.28
2022-11-05T18:09:49.457Z,99755.31
2022-11-05T18:12:18.279Z,99766.22
2022-11-05T18:14:56.585Z,99760.59
2022-11-05T18:17:28.932Z,99764.72
2022-11-05T18:19:59.758Z,99767.09
2022-11-05T18:22:30.081Z,99755.81
2022-11-05T18:25:03.917Z,99759.63
2022-11-05T18:27:33.707Z,99762.03
2022-11-05T18:30:05.723Z,99772.31
2022-11-05T18:32:36.136Z,99769.91
2022-11-05T18:35:05.316Z,99766.00
2022-11-05T18:37:34.736Z,99771.59
2022-11-05T18:40:06.165Z,99777.78
2022-11-05T18:42:40.608Z,99768.25
2022-11-05T18:45:14.084Z,99783.41
2022-11-05T18:47:45.717Z,99779.47
2022-11-05T18:50:20.641Z,99785.09
2022-11-05T18:52:50.485Z,99790.31
2022-11-05T18:55:20.042Z,99791.84
2022-11-05T18:57:50.297Z,99783.69
2022-11-05T19:00:24.149Z,99780.31
2022-11-05T19:02:53.240Z,99799.59
2022-11-05T19:05:30.883Z,99791.56
2022-11-05T19:07:59.675Z,99798.88
2022-11-05T19:10:31.420Z,99803.78
2022-11-05T19:13:00.811Z,99796.22
2022-11-05T19:15:32.841Z,99798.19
2022-11-05T19:18:07.300Z,99806.75
2022-11-05T19:20:38.492Z,99812.94
2022-11-05T19:23:08.005Z,99815.91
2022-11-05T19:25:40.167Z,99810.56
2022-11-05T19:28:09.743Z,99822.22
2022-11-05T19:30:56.257Z,99821.41
2022-11-05T19:33:36.238Z,99832.34
2022-11-05T19:36:08.128Z,99831.75
2022-11-05T19:38:54.966Z,99832.34
2022-11-05T19:41:24.144Z,99838.81
2022-11-05T19:44:00.623Z,99830.78
2022-11-05T19:46:33.823Z,99839.47
2022-11-05T19:49:05.019Z,99829.22
2022-11-05T19:51:35.162Z,99845.69
2022-11-05T19:54:06.095Z,99843.03
2022-11-05T19:56:38.867Z,99848.16
2022-11-05T19:59:08.413Z,99852.28
2022-11-05T20:01:40.467Z,99853.53
2022-11-05T20:04:13.815Z,99868.97
2022-11-05T20:06:43.393Z,99873.91
2022-11-05T20:09:21.667Z,99855.94
2022-11-05T20:12:00.794Z,99861.22
2022-11-05T20:14:33.987Z,99864.44
2022-11-05T20:17:04.911Z,99866.75
2022-11-05T20:19:35.542Z,99867.97
2022-11-05T20:22:07.440Z,99867.84
2022-11-05T20:24:38.515Z,99875.16
2022-11-05T20:27:11.124Z,99882.44
2022-11-05T20:29:42.491Z,99869.19
2022-11-05T20:32:14.679Z,99885.69
2022-11-05T20:34:45.510Z,99886.78
2022-11-05T20:37:17.126Z,99889.03
2022-11-05T20:39:48.540Z,99882.53
2022-11-05T20:42:19.998Z,99885.66
2022-11-05T20:44:58.910Z,99885.66
2022-11-05T20:47:31.988Z,99880.75
2022-11-05T20:50:09.392Z,99885.63
2022-11-05T20:52:38.534Z,99893.78
2022-11-05T20:55:12.049Z,99887.31
2022-11-05T20:57:42.117Z,99889.31
2022-11-05T21:00:13.751Z,99895.88
2022-11-05T21:02:47.428Z,99890.00
2022-11-05T21:05:18.108Z,99887.06
2022-11-05T21:07:51.140Z,99893.38
2022-11-05T21:10:20.712Z,99894.34
2022-11-05T21:12:50.845Z,99891.50
2022-11-05T21:15:23.460Z,99887.66
2022-11-05T21:17:57.205Z,99883.16
2022-11-05T21:20:27.378Z,99885.84
2022-11-05T21:23:00.393Z,99892.47
2022-11-05T21:25:33.489Z,99895.66
2022-11-05T21:28:04.524Z,99897.81
2022-11-05T21:30:36.500Z,99898.53
2022-11-05T21:33:08.659Z,99894.72
2022-11-05T21:35:44.337Z,99901.00
2022-11-05T21:38:16.062Z,99906.88
2022-11-05T21:40:49.930Z,99899.44
2022-11-05T21:43:20.285Z,99895.59
2022-11-05T21:45:50.601Z,99910.41
2022-11-05T21:48:20.842Z,99903.94
2022-11-05T21:51:10.213Z,99897.34
2022-11-05T21:54:00.530Z,99897.31
2022-11-05T21:56:47.904Z,99902.91
2022-11-05T21:59:39.392Z,99901.50
2022-11-05T22:02:09.554Z,99904.72
2022-11-05T22:04:43.382Z,99896.41
2022-11-05T22:07:15.393Z,99906.41
2022-11-05T22:09:48.501Z,99913.81
2022-11-05T22:12:19.561Z,99899.38
2022-11-05T22:14:48.023Z,99911.81
2022-11-05T22:17:17.024Z,99904.00
2022-11-05T22:19:48.400Z,99907.53
2022-11-05T22:22:18.996Z,99921.06
2022-11-05T22:24:47.552Z,99912.88
2022-11-05T22:27:18.354Z,99922.53
2022-11-05T22:29:47.688Z,99909.44
2022-11-05T22:32:17.924Z,99915.75
2022-11-05T22:34:50.452Z,99917.81
2022-11-05T22:37:19.066Z,99920.94
2022-11-05T22:39:47.249Z,99915.91
2022-11-05T22:42:15.737Z,99912.22
2022-11-05T22:44:45.415Z,99914.25
2022-11-05T22:47:14.118Z,99916.34
2022-11-05T22:49:43.733Z,99930.19
2022-11-05T22:52:13.944Z,99919.88
2022-11-05T22:54:43.288Z,99922.69
2022-11-05T22:57:11.547Z,99924.13
2022-11-05T22:59:40.699Z,99914.41
2022-11-05T23:02:10.337Z,99926.41
2022-11-05T23:04:40.019Z,99932.31
2022-11-05T23:07:30.532Z,99922.28
2022-11-05T23:10:16.104Z,99919.75
2022-11-05T23:12:45.938Z,99922.41
2022-11-05T23:15:35.975Z,99929.22
2022-11-05T23:18:22.150Z,99922.84
2022-11-05T23:21:10.211Z,99924.56
2022-11-05T23:23:59.980Z,99916.66
2022-11-05T23:26:46.756Z,99916.41
2022-11-05T23:29:15.732Z,99919.00
2022-11-05T23:32:03.514Z,99920.31
2022-11-05T23:34:31.686Z,99910.66
2022-11-05T23:37:17.010Z,99902.69
2022-11-05T23:39:47.050Z,99906.94
2022-11-05T23:42:34.971Z,99919.44
2022-11-05T23:45:24.378Z,99906.91
2022-11-05T23:48:11.224Z,99910.75
2022-11-05T23:50:41.135Z,99914.03
2022-11-05T23:53:11.128Z,99920.88
2022-11-05T23:55:41.198Z,99920.75
2022-11-05T23:58:11.236Z,99920.94
